Time;durP1;ratioP1;P1;durP2;ratioP2;P2;SDS_P1;SDS_P2;PMS_P1;PMS_P2;Temp;Humidity;BMP_temperature;BMP_pressure;BME280_temperature;BME280_humidity;BME280_pressure;Samples;Min_cycle;Max_cycle;Signal;HPM_P1;HPM_P2
2022/09/16 00:00:36;;;;;;;8.70;8.00;;;14.10;99.90;;;;;;5032024;28;20567;-74
2022/09/16 00:03:02;;;;;;;8.30;7.40;;;14.10;99.90;;;;;;5032188;28;20429;-74
2022/09/16 00:05:28;;;;;;;7.67;7.03;;;14.10;99.90;;;;;;5032133;28;20988;-74
2022/09/16 00:07:54;;;;;;;7.43;6.77;;;14.10;99.90;;;;;;5032085;28;20429;-74
2022/09/16 00:10:20;;;;;;;7.30;6.60;;;14.10;99.90;;;;;;5031521;28;20241;-74
2022/09/16 00:12:46;;;;;;;9.10;7.77;;;14.10;99.90;;;;;;5031982;28;20961;-74
2022/09/16 00:15:12;;;;;;;8.87;8.10;;;14.10;99.90;;;;;;5032157;28;20470;-74
2022/09/16 00:17:37;;;;;;;10.03;7.60;;;14.10;99.90;;;;;;5032110;28;20628;-73
2022/09/16 00:20:04;;;;;;;7.67;6.90;;;14.10;99.90;;;;;;5031217;28;20171;-74
2022/09/16 00:22:30;;;;;;;8.27;7.47;;;14.10;99.90;;;;;;5032102;28;20202;-74
2022/09/16 00:24:55;;;;;;;7.20;6.60;;;14.10;99.90;;;;;;5031942;28;20948;-73
2022/09/16 00:27:21;;;;;;;8.00;7.30;;;14.10;99.90;;;;;;5032010;28;20182;-73
2022/09/16 00:29:46;;;;;;;7.93;7.33;;;14.20;99.90;;;;;;5031273;28;20174;-73
2022/09/16 00:32:12;;;;;;;8.00;7.30;;;14.30;99.90;;;;;;5031690;28;20209;-73
2022/09/16 00:34:37;;;;;;;10.27;7.50;;;14.20;99.90;;;;;;5031886;28;20194;-73
2022/09/16 00:37:07;;;;;;;9.30;7.93;;;14.20;99.90;;;;;;5031827;28;20693;-73
2022/09/16 00:39:33;;;;;;;9.63;8.53;;;14.10;99.90;;;;;;5031146;28;20193;-74
2022/09/16 00:41:58;;;;;;;7.90;7.10;;;14.10;99.90;;;;;;5031801;28;20972;-73
2022/09/16 00:44:49;;;;;;;10.47;7.77;;;14.10;99.90;;;;;;5031858;28;20421;-73
2022/09/16 00:47:19;;;;;;;7.80;6.97;;;14.10;99.90;;;;;;5031775;28;20170;-74
2022/09/16 00:49:45;;;;;;;9.40;7.30;;;14.10;99.90;;;;;;5031048;28;20409;-73
2022/09/16 00:52:12;;;;;;;9.80;8.60;;;14.10;99.90;;;;;;5031603;28;20469;-73
2022/09/16 00:54:40;;;;;;;8.17;7.40;;;14.00;99.90;;;;;;5031836;28;20894;-73
2022/09/16 00:57:09;;;;;;;8.80;7.90;;;14.10;99.90;;;;;;5031774;28;20417;-74
2022/09/16 00:59:39;;;;;;;8.20;7.37;;;14.10;99.90;;;;;;5030965;28;20852;-73
2022/09/16 01:02:10;;;;;;;7.57;6.87;;;14.20;99.90;;;;;;5031592;28;20469;-74
2022/09/16 01:05:00;;;;;;;8.73;7.83;;;14.20;99.90;;;;;;5031710;28;20844;-74
2022/09/16 01:07:55;;;;;;;8.23;6.97;;;14.10;99.90;;;;;;5031707;28;20516;-74
2022/09/16 01:10:22;;;;;;;9.23;8.43;;;14.10;99.90;;;;;;5014061;28;20834;-73
2022/09/16 01:12:54;;;;;;;10.13;6.80;;;14.00;99.90;;;;;;5031548;28;20508;-73
2022/09/16 01:15:25;;;;;;;8.33;7.60;;;14.00;99.90;;;;;;5031522;28;20416;-74
2022/09/16 01:18:20;;;;;;;7.13;6.53;;;13.90;99.90;;;;;;5031593;28;20409;-74
2022/09/16 01:20:51;;;;;;;7.80;7.00;;;13.90;99.90;;;;;;5031576;28;20745;-74
2022/09/16 01:23:35;;;;;;;11.67;7.90;;;13.90;99.90;;;;;;5031332;28;20436;-74
2022/09/16 01:26:13;;;;;;;8.07;6.67;;;13.80;99.90;;;;;;5033130;28;20459;-74
2022/09/16 01:29:07;;;;;;;10.43;8.07;;;13.80;99.90;;;;;;5034392;28;20946;-74
2022/09/16 01:32:00;;;;;;;9.33;6.93;;;13.90;99.90;;;;;;5034757;28;20503;-74
2022/09/16 01:34:52;;;;;;;10.67;7.20;;;13.80;99.90;;;;;;5035065;28;20409;-74
2022/09/16 01:37:44;;;;;;;9.97;8.20;;;13.80;99.90;;;;;;5034852;28;20901;-74
2022/09/16 01:40:33;;;;;;;10.03;7.13;;;13.80;99.90;;;;;;5034119;28;20401;-73
2022/09/16 01:43:20;;;;;;;9.70;8.70;;;13.80;99.90;;;;;;5034804;28;20439;-73
2022/09/16 01:45:56;;;;;;;8.70;7.40;;;13.70;99.90;;;;;;5034724;28;20421;-74
2022/09/16 01:48:28;;;;;;;7.70;7.03;;;13.70;99.90;;;;;;5034030;28;21008;-73
2022/09/16 01:51:11;;;;;;;12.77;7.33;;;13.70;99.90;;;;;;5034796;28;20822;-74
2022/09/16 01:53:48;;;;;;;9.00;7.80;;;13.60;99.90;;;;;;5034801;28;20986;-73
2022/09/16 01:56:19;;;;;;;8.03;7.43;;;13.50;99.90;;;;;;5034560;28;20777;-74
2022/09/16 01:58:58;;;;;;;9.20;8.37;;;13.40;99.90;;;;;;5033847;28;20413;-74
2022/09/16 02:01:34;;;;;;;9.60;7.87;;;13.40;99.90;;;;;;5033200;28;20435;-74
2022/09/16 02:04:05;;;;;;;10.00;7.83;;;13.30;99.90;;;;;;5034503;28;20855;-74
2022/09/16 02:06:33;;;;;;;8.50;7.67;;;13.30;99.90;;;;;;5034317;28;20429;-73
2022/09/16 02:09:04;;;;;;;9.73;8.83;;;13.40;99.90;;;;;;5033647;28;20910;-73
2022/09/16 02:11:30;;;;;;;8.50;7.40;;;13.30;99.90;;;;;;5034159;28;20831;-73
2022/09/16 02:14:20;;;;;;;8.63;7.83;;;13.30;99.90;;;;;;5034219;28;20413;-73
2022/09/16 02:16:59;;;;;;;12.63;7.70;;;13.40;99.90;;;;;;5034133;28;20917;-73
2022/09/16 02:19:30;;;;;;;7.23;6.60;;;13.50;99.90;;;;;;5033461;28;20419;-73
2022/09/16 02:21:58;;;;;;;8.17;6.70;;;13.50;99.90;;;;;;5034033;28;20433;-73
2022/09/16 02:24:26;;;;;;;7.83;7.03;;;13.40;99.90;;;;;;5034122;28;20919;-74
2022/09/16 02:26:59;;;;;;;8.17;6.70;;;13.50;99.90;;;;;;5034013;28;20999;-74
2022/09/16 02:29:27;;;;;;;7.70;6.20;;;13.50;99.90;;;;;;5033269;28;20442;-74
2022/09/16 02:31:58;;;;;;;6.07;5.47;;;13.50;99.90;;;;;;5033675;28;20465;-73
2022/09/16 02:34:32;;;;;;;7.73;6.30;;;13.50;99.90;;;;;;5033886;28;20409;-74
2022/09/16 02:37:08;;;;;;;6.90;6.40;;;13.50;99.90;;;;;;5032875;28;20416;-74
2022/09/16 02:39:38;;;;;;;8.63;6.73;;;13.40;99.90;;;;;;5032931;28;20421;-74
2022/09/16 02:42:04;;;;;;;6.00;5.50;;;13.40;99.90;;;;;;5033850;28;20464;-74
2022/09/16 02:44:30;;;;;;;8.83;6.00;;;13.40;99.90;;;;;;5033664;28;20432;-74
2022/09/16 02:47:09;;;;;;;6.83;5.70;;;13.40;99.90;;;;;;5033559;28;20417;-74
2022/09/16 02:49:45;;;;;;;8.67;5.30;;;13.40;99.90;;;;;;5032957;28;20490;-74
2022/09/16 02:52:15;;;;;;;8.90;5.60;;;13.50;99.90;;;;;;5033537;28;20543;-74
2022/09/16 02:55:02;;;;;;;6.60;5.90;;;13.60;99.90;;;;;;5033387;28;20420;-74
2022/09/16 02:57:28;;;;;;;6.00;5.30;;;13.60;99.90;;;;;;5033480;28;20466;-74
2022/09/16 02:59:54;;;;;;;6.20;5.03;;;13.60;99.90;;;;;;5032712;28;20424;-74
2022/09/16 03:02:20;;;;;;;7.93;5.93;;;13.60;99.90;;;;;;5033246;28;20480;-74
2022/09/16 03:04:46;;;;;;;7.70;5.33;;;13.70;99.90;;;;;;5033119;28;20455;-74
2022/09/16 03:07:12;;;;;;;7.77;6.57;;;13.70;99.90;;;;;;5033249;28;20170;-73
2022/09/16 03:09:45;;;;;;;8.00;6.40;;;13.80;99.90;;;;;;5032470;28;20746;-74
2022/09/16 03:12:41;;;;;;;10.43;6.80;;;13.80;99.90;;;;;;5033013;28;20491;-73
2022/09/16 03:15:52;;;;;;;7.60;6.70;;;13.90;99.90;;;;;;5033074;28;20409;-74
2022/09/16 03:18:29;;;;;;;6.40;5.80;;;13.70;99.90;;;;;;5032296;28;20496;-74
2022/09/16 03:21:10;;;;;;;8.97;6.87;;;13.50;99.90;;;;;;5033065;28;20437;-73
2022/09/16 03:23:50;;;;;;;10.67;6.87;;;13.50;99.90;;;;;;5032889;28;21228;-74
2022/09/16 03:26:44;;;;;;;8.10;5.83;;;13.50;99.90;;;;;;5032924;28;20498;-74
2022/09/16 03:29:15;;;;;;;7.63;5.73;;;13.50;99.90;;;;;;5032175;28;20409;-74
2022/09/16 03:31:58;;;;;;;6.93;6.23;;;13.50;99.90;;;;;;5057574;22;20464;-70
2022/09/16 03:34:37;;;;;;;6.40;5.77;;;13.50;99.90;;;;;;5043373;28;20455;-70
2022/09/16 03:37:08;;;;;;;6.50;5.83;;;13.40;99.90;;;;;;5032773;28;20530;-70
2022/09/16 03:39:34;;;;;;;8.93;5.87;;;13.40;99.90;;;;;;5031975;28;20414;-70
2022/09/16 03:42:02;;;;;;;11.67;5.60;;;13.40;99.90;;;;;;5032464;28;20444;-70
2022/09/16 03:44:32;;;;;;;7.70;6.73;;;13.40;99.90;;;;;;5032381;28;20437;-70
2022/09/16 03:46:58;;;;;;;6.20;5.50;;;13.40;99.90;;;;;;5032541;28;20456;-70
2022/09/16 03:49:23;;;;;;;7.20;6.50;;;13.40;99.90;;;;;;5031445;28;20519;-70
2022/09/16 03:51:49;;;;;;;6.87;5.50;;;13.40;99.90;;;;;;5032312;28;20209;-70
2022/09/16 03:54:14;;;;;;;6.00;5.50;;;13.40;99.90;;;;;;5032329;28;20635;-70
2022/09/16 03:56:40;;;;;;;6.70;6.10;;;13.50;99.90;;;;;;5032270;28;20289;-70
2022/09/16 03:59:05;;;;;;;7.20;6.23;;;13.50;99.90;;;;;;5031667;28;20170;-70
2022/09/16 04:01:31;;;;;;;6.43;5.07;;;13.50;99.90;;;;;;5032193;28;20178;-70
2022/09/16 04:03:56;;;;;;;7.80;6.07;;;13.50;99.90;;;;;;5032253;28;20253;-70
2022/09/16 04:06:22;;;;;;;5.50;5.00;;;13.50;99.90;;;;;;5032248;28;20705;-70
2022/09/16 04:08:49;;;;;;;7.80;6.43;;;13.50;99.90;;;;;;5031513;28;20587;-70
2022/09/16 04:11:15;;;;;;;7.80;7.20;;;13.50;99.90;;;;;;5032022;28;20170;-70
2022/09/16 04:13:41;;;;;;;8.03;6.67;;;13.50;99.90;;;;;;5032021;28;20448;-70
2022/09/16 04:16:06;;;;;;;7.00;6.13;;;13.50;99.90;;;;;;5032070;28;20910;-70
2022/09/16 04:18:33;;;;;;;9.23;5.90;;;13.60;99.90;;;;;;5031255;28;20178;-70
2022/09/16 04:21:01;;;;;;;6.93;6.33;;;13.70;99.90;;;;;;5031015;28;20166;-70
2022/09/16 04:23:27;;;;;;;8.50;6.30;;;13.70;99.90;;;;;;5031919;28;20441;-70
2022/09/16 04:26:01;;;;;;;7.83;6.50;;;13.70;99.90;;;;;;5031926;28;20425;-70
2022/09/16 04:28:29;;;;;;;7.30;6.60;;;13.60;99.90;;;;;;5031271;28;20451;-70
2022/09/16 04:31:02;;;;;;;8.80;7.83;;;13.50;99.90;;;;;;5031948;28;20421;-70
2022/09/16 04:33:33;;;;;;;6.90;6.37;;;13.50;99.90;;;;;;5031784;28;20496;-70
2022/09/16 04:36:13;;;;;;;6.70;6.20;;;13.50;99.90;;;;;;5031938;28;20988;-70
2022/09/16 04:38:41;;;;;;;8.60;6.63;;;13.40;99.90;;;;;;5031136;28;20474;-70
2022/09/16 04:41:12;;;;;;;8.73;6.60;;;13.40;99.90;;;;;;5031942;28;20581;-70
2022/09/16 04:43:39;;;;;;;6.90;6.20;;;13.40;99.90;;;;;;5031793;28;20528;-70
2022/09/16 04:46:05;;;;;;;8.30;5.80;;;13.40;99.90;;;;;;5031769;28;20424;-70
2022/09/16 04:48:32;;;;;;;7.37;6.67;;;13.40;99.90;;;;;;5031052;28;20782;-70
2022/09/16 04:51:05;;;;;;;7.83;6.00;;;13.40;99.90;;;;;;5047103;28;20421;-70
2022/09/16 04:53:32;;;;;;;9.53;6.53;;;13.40;99.90;;;;;;5031685;28;20455;-70
2022/09/16 04:56:14;;;;;;;7.53;5.63;;;13.40;99.90;;;;;;5031662;28;20491;-70
2022/09/16 04:58:44;;;;;;;7.93;6.70;;;13.40;99.90;;;;;;5030974;28;20453;-70
2022/09/16 05:01:13;;;;;;;6.70;5.10;;;13.50;99.90;;;;;;5033571;28;20416;-71
2022/09/16 05:03:43;;;;;;;6.23;5.63;;;13.50;99.90;;;;;;5035463;28;20438;-70
2022/09/16 05:06:13;;;;;;;9.53;6.17;;;13.50;99.90;;;;;;5035529;28;20420;-70
2022/09/16 05:08:39;;;;;;;7.00;6.27;;;13.50;99.90;;;;;;5034836;28;20417;-70
2022/09/16 05:11:11;;;;;;;5.80;5.30;;;13.60;99.90;;;;;;5035369;28;20777;-70
2022/09/16 05:13:38;;;;;;;6.37;5.77;;;13.50;99.90;;;;;;5035217;28;20547;-70
2022/09/16 05:16:22;;;;;;;8.80;6.30;;;13.50;99.90;;;;;;5035192;28;20431;-70
2022/09/16 05:18:52;;;;;;;8.43;5.77;;;13.50;99.90;;;;;;5034625;28;20772;-70
2022/09/16 05:21:19;;;;;;;9.60;6.17;;;13.50;99.90;;;;;;5035244;28;20543;-70
2022/09/16 05:23:45;;;;;;;10.07;5.70;;;13.50;99.90;;;;;;5035142;28;20444;-70
2022/09/16 05:26:14;;;;;;;6.90;6.20;;;13.60;99.90;;;;;;5035190;28;20440;-69
2022/09/16 05:28:40;;;;;;;7.40;6.63;;;13.70;99.90;;;;;;5034398;28;20507;-70
2022/09/16 05:31:11;;;;;;;7.37;6.00;;;13.70;99.90;;;;;;5034914;28;20832;-70
2022/09/16 05:33:38;;;;;;;8.23;5.87;;;13.70;99.90;;;;;;5034812;28;20242;-70
2022/09/16 05:36:06;;;;;;;8.50;6.20;;;13.70;99.90;;;;;;5034989;28;20427;-70
2022/09/16 05:38:32;;;;;;;10.93;7.17;;;13.70;99.90;;;;;;5034110;28;20517;-70
2022/09/16 05:40:59;;;;;;;7.70;6.70;;;13.70;99.90;;;;;;5034864;28;20562;-70
2022/09/16 05:43:24;;;;;;;9.50;6.53;;;13.70;99.90;;;;;;5034813;28;20218;-70
2022/09/16 05:45:54;;;;;;;7.57;5.93;;;13.60;99.90;;;;;;5034773;28;20460;-70
2022/09/16 05:48:21;;;;;;;7.37;6.60;;;13.50;99.90;;;;;;5033966;28;20177;-70
2022/09/16 05:50:54;;;;;;;10.07;6.10;;;13.50;99.90;;;;;;5034745;28;20444;-70
2022/09/16 05:53:20;;;;;;;8.43;6.97;;;13.50;99.90;;;;;;5034414;28;20517;-69
2022/09/16 05:55:57;;;;;;;6.10;5.50;;;13.50;99.90;;;;;;5034561;28;20420;-69
2022/09/16 05:58:24;;;;;;;6.50;5.90;;;13.60;99.90;;;;;;5032450;28;20556;-70
2022/09/16 06:00:49;;;;;;;6.30;5.70;;;13.60;99.90;;;;;;5034399;28;20409;-70
2022/09/16 06:03:15;;;;;;;7.70;6.00;;;13.70;99.90;;;;;;5034419;28;20448;-69
2022/09/16 06:05:41;;;;;;;6.30;5.63;;;13.60;99.90;;;;;;5034405;28;20174;-70
2022/09/16 06:08:06;;;;;;;12.43;6.27;;;13.50;99.90;;;;;;5034134;28;20536;-69
2022/09/16 06:10:39;;;;;;;8.50;5.33;;;13.50;99.90;;;;;;5033639;28;20174;-70
2022/09/16 06:13:05;;;;;;;7.27;6.57;;;13.50;99.90;;;;;;5034097;28;20202;-69
2022/09/16 06:15:31;;;;;;;8.27;7.03;;;13.60;99.90;;;;;;5034169;28;20413;-70
2022/09/16 06:17:57;;;;;;;6.73;5.73;;;13.50;99.90;;;;;;5034041;28;20636;-69
2022/09/16 06:20:23;;;;;;;7.43;5.63;;;13.50;99.90;;;;;;5033414;28;20217;-70
2022/09/16 06:22:49;;;;;;;6.47;5.97;;;13.50;99.90;;;;;;5034077;28;20938;-69
2022/09/16 06:25:15;;;;;;;7.00;5.67;;;13.40;99.90;;;;;;5034035;28;20805;-70
2022/09/16 06:27:40;;;;;;;7.10;5.90;;;13.40;99.90;;;;;;5034111;28;20417;-70
2022/09/16 06:30:06;;;;;;;7.30;5.53;;;13.30;99.90;;;;;;5033159;28;20182;-69
2022/09/16 06:32:32;;;;;;;6.40;5.70;;;13.30;99.90;;;;;;5020184;28;20227;-69
2022/09/16 06:34:57;;;;;;;7.23;5.53;;;13.30;99.90;;;;;;5007842;28;20458;-68
2022/09/16 06:37:23;;;;;;;7.17;6.57;;;13.40;99.90;;;;;;5038744;28;20174;-68
2022/09/16 06:39:48;;;;;;;6.83;5.50;;;13.40;99.90;;;;;;5027869;28;20178;-69
2022/09/16 06:42:14;;;;;;;10.43;6.43;;;13.30;99.90;;;;;;5038462;28;20255;-69
2022/09/16 06:44:40;;;;;;;7.90;7.00;;;13.30;99.90;;;;;;5038946;28;20209;-71
2022/09/16 06:47:05;;;;;;;10.57;6.63;;;13.30;99.90;;;;;;5042550;28;20173;-71
2022/09/16 06:49:31;;;;;;;6.57;5.90;;;13.30;99.90;;;;;;5044225;28;20524;-72
2022/09/16 06:51:56;;;;;;;8.33;6.67;;;13.20;99.90;;;;;;5047652;28;20204;-71
2022/09/16 06:54:22;;;;;;;11.27;6.03;;;13.20;99.90;;;;;;5052009;28;20184;-71
2022/09/16 06:56:48;;;;;;;7.37;6.67;;;13.20;99.90;;;;;;5042740;28;20173;-71
2022/09/16 06:59:13;;;;;;;6.73;6.13;;;13.30;99.90;;;;;;5050461;28;20173;-72
2022/09/16 07:01:39;;;;;;;7.07;6.47;;;13.30;99.90;;;;;;5050071;28;20431;-71
2022/09/16 07:04:12;;;;;;;7.60;6.40;;;13.30;99.90;;;;;;5031754;28;20257;-71
2022/09/16 07:06:38;;;;;;;5.50;5.10;;;13.30;99.90;;;;;;5050841;28;20427;-71
2022/09/16 07:09:04;;;;;;;8.03;6.03;;;13.20;99.90;;;;;;5045666;28;20470;-71
2022/09/16 07:11:30;;;;;;;6.73;5.10;;;13.30;99.90;;;;;;5032582;28;20517;-71
2022/09/16 07:13:57;;;;;;;7.67;5.77;;;13.20;99.90;;;;;;5029025;28;20773;-71
2022/09/16 07:16:24;;;;;;;7.00;4.97;;;13.20;99.90;;;;;;5045183;28;20185;-72
2022/09/16 07:18:55;;;;;;;10.53;5.90;;;13.10;99.90;;;;;;5051710;28;20419;-71
2022/09/16 07:21:24;;;;;;;5.90;5.40;;;13.10;99.90;;;;;;5032233;28;20937;-71
2022/09/16 07:23:50;;;;;;;6.33;5.80;;;13.10;99.90;;;;;;5028601;28;20439;-71
2022/09/16 07:26:21;;;;;;;6.90;5.70;;;13.10;99.90;;;;;;5031757;28;20942;-71
2022/09/16 07:28:49;;;;;;;7.70;6.17;;;13.10;99.90;;;;;;5048252;28;20824;-72
2022/09/16 07:31:19;;;;;;;8.33;5.83;;;13.20;99.90;;;;;;5051931;28;20432;-72
2022/09/16 07:33:48;;;;;;;7.20;6.07;;;13.40;99.90;;;;;;5031826;28;20871;-72
2022/09/16 07:36:23;;;;;;;6.57;5.97;;;13.60;99.90;;;;;;5042575;28;20423;-72
2022/09/16 07:38:50;;;;;;;10.20;6.57;;;13.70;99.90;;;;;;5045786;28;20918;-71
2022/09/16 07:41:18;;;;;;;9.73;6.30;;;13.60;99.90;;;;;;5050527;28;20436;-72
2022/09/16 07:43:44;;;;;;;6.27;5.67;;;13.60;99.90;;;;;;5042051;28;20505;-72
2022/09/16 07:46:12;;;;;;;14.67;12.03;;;13.60;99.90;;;;;;5051636;28;20416;-71
2022/09/16 07:48:38;;;;;;;10.17;7.50;;;13.50;99.90;;;;;;5051362;28;20444;-72
2022/09/16 07:51:07;;;;;;;9.27;6.33;;;13.50;99.90;;;;;;5043168;28;20425;-72
2022/09/16 07:53:33;;;;;;;12.13;6.80;;;13.60;99.90;;;;;;5031256;28;20551;-71
2022/09/16 07:56:08;;;;;;;10.13;9.23;;;13.60;99.90;;;;;;5032130;28;20782;-71
2022/09/16 07:58:34;;;;;;;8.70;7.90;;;13.60;99.90;;;;;;5041510;28;20788;-72
2022/09/16 08:01:01;;;;;;;7.90;6.93;;;13.70;99.90;;;;;;5043782;28;20421;-72
2022/09/16 08:03:27;;;;;;;7.33;6.73;;;13.60;99.90;;;;;;5038576;28;20526;-72
2022/09/16 08:05:59;;;;;;;11.87;6.27;;;13.70;99.90;;;;;;5033308;28;20459;-72
2022/09/16 08:08:24;;;;;;;10.93;7.10;;;13.80;99.90;;;;;;5031068;28;20174;-72
2022/09/16 08:10:54;;;;;;;10.43;7.67;;;13.90;99.90;;;;;;5044408;28;20485;-72
2022/09/16 08:13:20;;;;;;;7.23;6.50;;;13.90;99.90;;;;;;5038410;28;20580;-71
2022/09/16 08:15:45;;;;;;;8.97;6.97;;;14.00;99.90;;;;;;5031922;28;20429;-71
2022/09/16 08:18:10;;;;;;;8.23;7.43;;;14.10;99.90;;;;;;5049920;28;20195;-71
2022/09/16 08:20:36;;;;;;;8.73;7.83;;;14.20;99.90;;;;;;5034439;28;20261;-71
2022/09/16 08:23:02;;;;;;;7.20;6.50;;;14.30;99.90;;;;;;5043264;28;20205;-72
2022/09/16 08:25:27;;;;;;;8.73;7.13;;;14.50;99.90;;;;;;5051659;28;20221;-72
2022/09/16 08:27:54;;;;;;;7.27;6.77;;;14.50;99.90;;;;;;5052038;28;20201;-72
2022/09/16 08:30:19;;;;;;;7.67;6.97;;;14.60;99.90;;;;;;5034034;28;20913;-72
2022/09/16 08:32:45;;;;;;;7.60;7.07;;;14.80;99.90;;;;;;5031354;28;20220;-71
2022/09/16 08:35:11;;;;;;;9.90;7.50;;;14.90;99.90;;;;;;5031538;28;20169;-72
2022/09/16 08:37:36;;;;;;;7.47;6.87;;;15.00;99.90;;;;;;5035644;28;20200;-72
2022/09/16 08:40:03;;;;;;;9.43;8.07;;;15.10;99.90;;;;;;5035208;28;20172;-72
2022/09/16 08:42:40;;;;;;;9.03;8.13;;;14.90;99.90;;;;;;5036709;28;20202;-72
2022/09/16 08:45:25;;;;;;;10.53;7.00;;;14.80;99.90;;;;;;5054567;28;20799;-71
2022/09/16 08:48:16;;;;;;;6.90;6.30;;;14.70;99.90;;;;;;5055460;28;20786;-71
2022/09/16 08:50:45;;;;;;;9.57;6.37;;;14.60;99.90;;;;;;5055129;28;20921;-71
2022/09/16 08:53:31;;;;;;;7.70;6.90;;;14.80;99.90;;;;;;5055390;28;20487;-72
2022/09/16 08:55:57;;;;;;;6.77;6.07;;;14.80;99.90;;;;;;5035934;28;20412;-72
2022/09/16 08:58:26;;;;;;;7.00;6.40;;;14.80;99.90;;;;;;5034622;28;20504;-72
2022/09/16 09:00:57;;;;;;;7.27;6.57;;;14.80;99.90;;;;;;5034453;28;20429;-72
2022/09/16 09:03:41;;;;;;;6.90;6.30;;;14.80;99.90;;;;;;5049265;28;20952;-71
2022/09/16 09:06:27;;;;;;;6.90;6.33;;;14.70;99.90;;;;;;5055308;28;20428;-73
2022/09/16 09:09:27;;;;;;;7.00;6.13;;;14.70;99.90;;;;;;5037393;28;20566;-72
2022/09/16 09:12:28;;;;;;;10.10;7.13;;;14.70;99.90;;;;;;5035263;28;20562;-71
2022/09/16 09:15:12;;;;;;;8.57;6.40;;;14.90;99.90;;;;;;5054300;28;20464;-72
2022/09/16 09:18:07;;;;;;;6.67;5.90;;;14.90;99.90;;;;;;5054691;28;20412;-71
2022/09/16 09:20:40;;;;;;;5.93;5.43;;;15.00;99.90;;;;;;5044639;28;20926;-72
2022/09/16 09:23:24;;;;;;;6.53;6.03;;;14.90;99.90;;;;;;5034876;28;20440;-72
2022/09/16 09:26:19;;;;;;;7.97;5.70;;;14.60;99.90;;;;;;5036132;28;20502;-72
2022/09/16 09:28:57;;;;;;;6.70;6.10;;;14.60;99.90;;;;;;5046699;28;20791;-72
2022/09/16 09:31:41;;;;;;;6.90;6.00;;;14.60;99.90;;;;;;5033702;28;20499;-72
2022/09/16 09:34:25;;;;;;;8.40;6.17;;;14.70;99.90;;;;;;5035033;28;20420;-72
2022/09/16 09:37:16;;;;;;;6.43;5.93;;;14.60;99.90;;;;;;5033715;28;20408;-72
2022/09/16 09:40:03;;;;;;;6.70;6.20;;;14.60;99.90;;;;;;5033379;28;20786;-72
2022/09/16 09:42:33;;;;;;;7.50;6.40;;;14.80;99.90;;;;;;5034394;28;20528;-72
2022/09/16 09:45:32;;;;;;;5.90;5.40;;;14.80;99.90;;;;;;5052801;28;20420;-72
2022/09/16 09:48:18;;;;;;;6.50;5.57;;;14.80;99.90;;;;;;5052045;28;20455;-72
2022/09/16 09:50:46;;;;;;;7.87;6.00;;;15.00;99.90;;;;;;5042441;28;20458;-72
2022/09/16 09:53:28;;;;;;;5.73;5.20;;;15.00;99.90;;;;;;5034186;28;20506;-72
2022/09/16 09:56:04;;;;;;;5.60;5.10;;;14.90;99.90;;;;;;5034735;28;20479;-72
2022/09/16 09:58:55;;;;;;;5.33;4.93;;;14.80;99.90;;;;;;5041954;28;20417;-71
2022/09/16 10:01:21;;;;;;;12.53;8.90;;;14.70;99.90;;;;;;5034145;28;20475;-72
2022/09/16 10:03:49;;;;;;;7.40;5.80;;;14.60;99.90;;;;;;5033655;28;20535;-71
2022/09/16 10:06:17;;;;;;;8.90;6.17;;;14.50;99.90;;;;;;5033897;28;20429;-72
2022/09/16 10:08:46;;;;;;;6.13;5.70;;;14.50;99.90;;;;;;5033532;28;20425;-72
2022/09/16 10:11:26;;;;;;;5.93;5.43;;;14.50;99.90;;;;;;5041027;28;20421;-72
2022/09/16 10:13:58;;;;;;;10.50;5.37;;;14.60;99.90;;;;;;5033755;28;20440;-72
2022/09/16 10:16:27;;;;;;;6.60;5.73;;;14.70;99.90;;;;;;5040397;28;20511;-72
2022/09/16 10:19:23;;;;;;;6.53;5.83;;;14.70;99.90;;;;;;5052426;28;20459;-72
2022/09/16 10:22:08;;;;;;;8.70;6.80;;;14.80;99.90;;;;;;5052692;28;20547;-72
2022/09/16 10:24:36;;;;;;;7.43;6.60;;;14.90;99.90;;;;;;5049382;28;20519;-72
2022/09/16 10:27:19;;;;;;;5.70;5.27;;;14.90;99.90;;;;;;5052350;28;20451;-73
2022/09/16 10:29:45;;;;;;;8.87;7.83;;;15.10;99.90;;;;;;5052095;28;20481;-72
2022/09/16 10:32:17;;;;;;;6.20;5.60;;;15.10;99.90;;;;;;5053432;28;20998;-72
2022/09/16 10:34:44;;;;;;;5.60;4.80;;;15.20;99.90;;;;;;5047689;28;20444;-73
2022/09/16 10:37:10;;;;;;;5.50;4.80;;;15.40;99.90;;;;;;5033038;28;20432;-72
2022/09/16 10:39:42;;;;;;;6.10;4.70;;;15.80;99.90;;;;;;5032889;28;20747;-69
2022/09/16 10:42:23;;;;;;;6.53;6.03;;;15.90;99.90;;;;;;5047187;28;20451;-66
2022/09/16 10:44:51;;;;;;;4.90;4.50;;;16.30;99.90;;;;;;5038863;28;20438;-67
2022/09/16 10:47:22;;;;;;;6.80;4.57;;;15.80;99.90;;;;;;5045775;28;20442;-69
2022/09/16 10:49:50;;;;;;;6.07;5.50;;;15.50;99.90;;;;;;5035578;28;20424;-67
2022/09/16 10:52:25;;;;;;;7.00;4.60;;;15.20;99.90;;;;;;5033125;28;20464;-69
2022/09/16 10:54:51;;;;;;;5.07;4.57;;;15.20;99.90;;;;;;5041347;28;20427;-69
2022/09/16 10:57:32;;;;;;;7.37;5.10;;;15.10;99.90;;;;;;5033152;28;20554;-69
2022/09/16 11:00:12;;;;;;;5.10;4.70;;;15.10;99.90;;;;;;5034071;28;20769;-69
2022/09/16 11:03:05;;;;;;;5.03;4.53;;;15.10;99.90;;;;;;5052217;28;20601;-69
2022/09/16 11:05:51;;;;;;;4.73;4.40;;;15.20;99.90;;;;;;5050244;28;20419;-69
2022/09/16 11:08:45;;;;;;;5.93;5.33;;;15.10;99.90;;;;;;5031184;28;20468;-68
2022/09/16 11:11:17;;;;;;;5.40;4.97;;;15.00;99.90;;;;;;5033081;28;20417;-69
2022/09/16 11:14:06;;;;;;;4.87;4.47;;;14.90;99.90;;;;;;5037057;28;20464;-69
2022/09/16 11:16:55;;;;;;;5.13;4.60;;;14.90;99.90;;;;;;5032666;28;20860;-69
2022/09/16 11:19:53;;;;;;;6.40;4.63;;;15.00;99.90;;;;;;5044684;28;20502;-69
2022/09/16 11:22:23;;;;;;;10.10;4.50;;;15.20;99.90;;;;;;5050792;28;20439;-69
2022/09/16 11:25:01;;;;;;;4.30;4.00;;;15.20;99.90;;;;;;5044368;28;20481;-69
2022/09/16 11:27:41;;;;;;;6.07;5.50;;;15.40;99.90;;;;;;5052636;28;20780;-68
2022/09/16 11:30:13;;;;;;;8.13;5.60;;;15.30;99.90;;;;;;5050300;28;20415;-69
2022/09/16 11:33:23;;;;;;;5.70;5.13;;;15.30;99.90;;;;;;5052267;28;20463;-68
2022/09/16 11:36:17;;;;;;;5.90;4.53;;;15.40;99.90;;;;;;5043482;28;20450;-69
2022/09/16 11:39:21;;;;;;;4.60;3.43;;;15.50;99.90;;;;;;5050683;28;20782;-69
2022/09/16 11:42:21;;;;;;;4.67;3.90;;;15.40;99.90;;;;;;5050263;28;20427;-69
2022/09/16 11:45:01;;;;;;;7.97;5.37;;;15.30;99.90;;;;;;5032051;28;20474;-67
2022/09/16 11:47:39;;;;;;;3.47;3.17;;;15.50;99.90;;;;;;5040073;28;20427;-67
2022/09/16 11:50:39;;;;;;;7.20;4.13;;;15.70;99.90;;;;;;5031634;28;20511;-67
2022/09/16 11:53:16;;;;;;;5.13;2.83;;;15.80;99.90;;;;;;5032276;28;20472;-67
2022/09/16 11:55:49;;;;;;;6.13;3.30;;;16.10;99.90;;;;;;5032206;28;20769;-73
2022/09/16 11:58:33;;;;;;;3.77;2.97;;;16.40;99.90;;;;;;5039168;28;20957;-72
2022/09/16 12:01:07;;;;;;;4.23;3.60;;;16.60;99.90;;;;;;5031870;28;20933;-72
2022/09/16 12:03:47;;;;;;;3.80;3.50;;;17.00;99.90;;;;;;5032146;28;20436;-73
2022/09/16 12:06:23;;;;;;;5.00;3.30;;;16.60;99.90;;;;;;5050510;28;20453;-72
2022/09/16 12:09:04;;;;;;;7.40;3.03;;;16.60;99.90;;;;;;5051188;28;20423;-70
2022/09/16 12:11:45;;;;;;;4.60;2.80;;;17.10;99.90;;;;;;5051386;28;20435;-70
2022/09/16 12:14:24;;;;;;;5.27;3.03;;;17.10;99.90;;;;;;5051703;28;20928;-70
2022/09/16 12:16:57;;;;;;;4.40;2.50;;;17.30;99.90;;;;;;5050576;28;21058;-70
2022/09/16 12:19:41;;;;;;;3.00;2.40;;;17.80;99.90;;;;;;5050859;28;20416;-70
2022/09/16 12:22:33;;;;;;;3.90;2.80;;;18.20;99.90;;;;;;5051675;28;21032;-70
2022/09/16 12:25:09;;;;;;;3.43;2.40;;;17.70;99.90;;;;;;5042444;28;20929;-70
2022/09/16 12:28:09;;;;;;;3.73;2.87;;;17.30;99.90;;;;;;5051734;28;20420;-70
2022/09/16 12:30:40;;;;;;;3.77;2.80;;;17.00;99.90;;;;;;5042983;28;20463;-70
2022/09/16 12:33:19;;;;;;;3.60;3.03;;;16.70;99.90;;;;;;5031530;28;20538;-70
2022/09/16 12:35:56;;;;;;;5.03;3.30;;;17.10;99.90;;;;;;5032756;28;20413;-70
2022/09/16 12:38:22;;;;;;;5.20;3.93;;;17.10;99.90;;;;;;5035286;28;20475;-70
2022/09/16 12:41:22;;;;;;;3.50;2.40;;;17.10;99.90;;;;;;5030423;28;20918;-70
2022/09/16 12:44:18;;;;;;;3.27;3.07;;;17.10;99.90;;;;;;5036250;28;20448;-70
2022/09/16 12:47:00;;;;;;;3.70;2.77;;;16.90;99.90;;;;;;5031555;28;20409;-70
2022/09/16 12:49:45;;;;;;;3.23;3.03;;;16.80;99.90;;;;;;5033286;28;20420;-70
2022/09/16 12:52:31;;;;;;;3.83;3.20;;;16.50;99.90;;;;;;5050229;28;20534;-69
2022/09/16 12:55:22;;;;;;;3.10;2.80;;;16.40;99.90;;;;;;5048559;28;21214;-70
2022/09/16 12:58:18;;;;;;;3.10;2.50;;;16.50;99.90;;;;;;5048005;28;21114;-70
2022/09/16 13:01:09;;;;;;;3.20;2.90;;;16.50;99.90;;;;;;5045814;28;20423;-70
2022/09/16 13:03:41;;;;;;;4.63;3.00;;;16.30;99.90;;;;;;5050173;28;20450;-69
2022/09/16 13:06:20;;;;;;;4.13;3.20;;;16.30;99.90;;;;;;5051587;28;20506;-68
2022/09/16 13:08:46;;;;;;;3.37;3.07;;;16.60;99.90;;;;;;5039767;28;20785;-69
2022/09/16 13:11:20;;;;;;;2.87;2.67;;;17.00;99.90;;;;;;5051412;28;20432;-70
2022/09/16 13:13:57;;;;;;;3.53;3.03;;;18.00;99.90;;;;;;5034468;28;20287;-70
2022/09/16 13:16:28;;;;;;;3.83;3.53;;;18.60;99.90;;;;;;5030684;28;20429;-70
2022/09/16 13:19:29;;;;;;;3.10;2.90;;;19.10;99.90;;;;;;5030586;28;20506;-69